Terminal Aerodrome Forecast
Issued by NWS

Home | Current Version | Previous Version | Graphics & Text | Print | Product List | Glossary On
Versions: 1 2 3 4 5 6 7 8 9 10 11 12 13 14 15
000
FTUS43 KMPX 221623 AAA
TAFRWF
TAF AMD
KRWF 221623Z 2216/2312 24010KT P6SM OVC008
      TEMPO 2216/2218 OVC012
     FM221800 23010KT P6SM BKN012
      TEMPO 2219/2220 SCT015
     FM222000 22013G18KT P6SM FEW100
     FM230600 21016G20KT P6SM OVC120=

USA.gov is the U.S. government's official web portal to all federal, state and local government web resources and services.